Time;durP1;ratioP1;P1;durP2;ratioP2;P2;SDS_P1;SDS_P2;PMS_P1;PMS_P2;Temp;Humidity;BMP_temperature;BMP_pressure;BME280_temperature;BME280_humidity;BME280_pressure;Samples;Min_cycle;Max_cycle;Signal;HPM_P1;HPM_P2
2020/12/25 00:01:18;;;;;;;10.27;2.70;;;5.50;99.90;;;;;;5036246;28;20470;-63
2020/12/25 00:03:43;;;;;;;9.00;5.43;;;5.50;99.90;;;;;;5035393;28;20272;-63
2020/12/25 00:06:09;;;;;;;2.53;0.77;;;5.50;99.90;;;;;;5034210;28;20212;-64
2020/12/25 00:08:34;;;;;;;7.23;3.67;;;5.40;99.90;;;;;;5036030;28;20182;-63
2020/12/25 00:11:00;;;;;;;2.70;1.03;;;5.50;99.90;;;;;;5031745;28;20522;-63
2020/12/25 00:13:25;;;;;;;10.37;2.53;;;5.50;99.90;;;;;;5035428;28;20193;-63
2020/12/25 00:15:51;;;;;;;10.23;3.60;;;5.50;99.90;;;;;;5031914;28;20569;-64
2020/12/25 00:18:16;;;;;;;3.60;1.77;;;5.50;99.90;;;;;;5034857;28;20193;-64
2020/12/25 00:20:42;;;;;;;2.37;0.73;;;5.60;99.90;;;;;;5027800;28;20209;-64
2020/12/25 00:23:07;;;;;;;3.77;1.90;;;5.60;99.90;;;;;;5033570;28;20209;-64
2020/12/25 00:25:33;;;;;;;1.80;0.50;;;5.60;99.90;;;;;;5031456;28;20236;-63
2020/12/25 00:27:58;;;;;;;5.00;2.17;;;5.60;99.90;;;;;;5029671;28;20548;-63
2020/12/25 00:30:24;;;;;;;1.80;0.20;;;5.70;99.90;;;;;;5034095;28;20178;-63
2020/12/25 00:32:49;;;;;;;4.63;2.67;;;5.70;99.90;;;;;;5034760;28;20177;-64
2020/12/25 00:35:15;;;;;;;1.70;0.20;;;5.70;99.90;;;;;;5034633;28;20273;-64
2020/12/25 00:37:40;;;;;;;2.50;1.43;;;5.60;99.90;;;;;;5034495;28;20236;-63
2020/12/25 00:40:06;;;;;;;2.00;0.97;;;5.60;99.90;;;;;;5029996;28;20182;-63
2020/12/25 00:42:31;;;;;;;1.77;0.30;;;5.70;99.90;;;;;;5035567;28;20170;-64
2020/12/25 00:44:57;;;;;;;4.10;2.60;;;5.70;99.90;;;;;;5031343;28;20244;-63
2020/12/25 00:47:22;;;;;;;1.90;0.57;;;5.60;99.90;;;;;;5027228;28;20228;-64
2020/12/25 00:49:48;;;;;;;1.80;0.30;;;5.50;99.90;;;;;;5035049;28;20612;-64
2020/12/25 00:52:13;;;;;;;1.70;0.20;;;5.50;99.90;;;;;;5034156;28;20196;-64
2020/12/25 00:54:39;;;;;;;1.70;0.20;;;5.50;99.90;;;;;;5034013;28;20320;-65
2020/12/25 00:57:04;;;;;;;3.50;1.27;;;5.50;99.90;;;;;;5029670;28;20681;-64
2020/12/25 00:59:30;;;;;;;4.90;2.70;;;5.50;99.90;;;;;;5029032;28;20688;-63
2020/12/25 01:01:55;;;;;;;1.80;0.40;;;5.50;99.90;;;;;;5032826;28;20197;-63
2020/12/25 01:04:21;;;;;;;1.80;0.30;;;5.50;99.90;;;;;;5023869;28;20185;-64
2020/12/25 01:06:46;;;;;;;1.77;0.20;;;5.50;99.90;;;;;;5031356;28;20259;-64
2020/12/25 01:09:12;;;;;;;3.60;2.27;;;5.50;99.90;;;;;;5033593;28;20202;-64
2020/12/25 01:11:37;;;;;;;2.90;0.97;;;5.40;99.90;;;;;;5033233;28;20186;-64
2020/12/25 01:14:03;;;;;;;3.17;1.57;;;5.40;99.90;;;;;;5029633;28;20194;-64
2020/12/25 01:16:28;;;;;;;1.70;0.20;;;5.40;99.90;;;;;;5033637;28;20212;-65
2020/12/25 01:18:54;;;;;;;1.70;0.20;;;5.50;99.90;;;;;;5016341;28;20186;-64
2020/12/25 01:21:19;;;;;;;3.47;2.33;;;5.50;99.90;;;;;;5031475;28;20220;-64
2020/12/25 01:23:45;;;;;;;3.83;1.83;;;5.50;99.90;;;;;;5014248;28;20281;-64
2020/12/25 01:26:10;;;;;;;1.93;0.37;;;5.40;99.90;;;;;;5031454;28;20300;-64
2020/12/25 01:28:37;;;;;;;13.10;1.47;;;5.40;99.90;;;;;;5023790;28;20186;-64
2020/12/25 01:31:03;;;;;;;7.87;3.33;;;5.40;99.90;;;;;;5032042;28;20436;-64
2020/12/25 01:33:30;;;;;;;2.30;0.50;;;5.40;99.90;;;;;;5032303;28;20443;-65
2020/12/25 01:35:55;;;;;;;6.50;1.00;;;5.40;99.90;;;;;;5030650;28;20459;-64
2020/12/25 01:38:21;;;;;;;2.83;0.50;;;5.40;99.90;;;;;;5011885;28;20449;-65
2020/12/25 01:40:47;;;;;;;1.80;0.37;;;5.40;99.90;;;;;;5031636;28;20198;-64
2020/12/25 01:43:12;;;;;;;2.47;0.87;;;5.40;99.90;;;;;;5033140;28;20186;-64
2020/12/25 01:45:38;;;;;;;1.70;0.20;;;5.40;99.90;;;;;;5029726;28;20218;-64
2020/12/25 01:48:04;;;;;;;1.90;0.40;;;5.50;99.90;;;;;;5027882;28;20239;-64
2020/12/25 01:50:30;;;;;;;1.70;0.20;;;5.50;99.90;;;;;;5032172;28;20186;-64
2020/12/25 01:52:56;;;;;;;1.70;0.20;;;5.50;99.90;;;;;;5029935;28;20444;-64
2020/12/25 01:55:25;;;;;;;1.80;0.40;;;5.60;99.90;;;;;;5030990;28;20213;-64
2020/12/25 01:57:52;;;;;;;1.70;0.20;;;5.60;99.90;;;;;;5031376;28;20460;-64
2020/12/25 02:00:18;;;;;;;1.70;0.20;;;5.60;99.90;;;;;;5030541;28;21013;-64
2020/12/25 02:02:44;;;;;;;1.73;0.20;;;5.70;99.90;;;;;;5025766;28;20552;-64
2020/12/25 02:05:09;;;;;;;1.70;0.20;;;5.70;99.90;;;;;;5029969;28;20843;-64
2020/12/25 02:07:35;;;;;;;1.70;0.20;;;5.70;99.90;;;;;;5030699;28;20641;-64
2020/12/25 02:10:00;;;;;;;1.90;0.50;;;5.70;99.90;;;;;;5027163;28;20232;-64
2020/12/25 02:12:26;;;;;;;1.70;0.20;;;5.70;99.90;;;;;;5026462;28;20190;-64
2020/12/25 02:14:52;;;;;;;1.70;0.20;;;5.70;99.90;;;;;;5029401;28;20187;-64
2020/12/25 02:17:17;;;;;;;2.33;0.97;;;5.70;99.90;;;;;;5030511;28;20202;-64
2020/12/25 02:19:43;;;;;;;1.70;0.20;;;5.70;99.90;;;;;;5028332;28;20689;-63
2020/12/25 02:22:08;;;;;;;1.70;0.20;;;5.70;99.90;;;;;;5031586;28;20178;-64
2020/12/25 02:24:34;;;;;;;1.70;0.20;;;5.80;99.90;;;;;;5028913;28;20190;-63
2020/12/25 02:26:59;;;;;;;1.70;0.20;;;5.90;99.90;;;;;;5030939;28;20216;-63
2020/12/25 02:29:25;;;;;;;1.70;0.20;;;5.90;99.90;;;;;;5025489;28;20185;-63
2020/12/25 02:31:50;;;;;;;3.20;0.60;;;5.80;99.90;;;;;;5030046;28;20174;-63
2020/12/25 02:34:16;;;;;;;2.30;1.47;;;5.70;99.90;;;;;;5033120;28;20676;-63
2020/12/25 02:36:41;;;;;;;1.97;0.57;;;5.60;99.90;;;;;;5005019;28;20193;-64
2020/12/25 02:39:07;;;;;;;1.70;0.20;;;5.60;99.90;;;;;;5026405;28;20190;-64
2020/12/25 02:41:32;;;;;;;2.60;0.87;;;5.50;99.90;;;;;;5031211;28;20208;-64
2020/12/25 02:43:58;;;;;;;1.70;0.20;;;5.50;99.90;;;;;;5015655;28;20185;-64
2020/12/25 02:46:28;;;;;;;2.00;0.60;;;5.50;99.90;;;;;;5027598;28;20739;-64
2020/12/25 02:48:53;;;;;;;4.27;1.67;;;5.60;99.90;;;;;;5031514;28;20252;-64
2020/12/25 02:51:19;;;;;;;1.70;0.20;;;5.70;99.90;;;;;;5011401;28;20440;-64
2020/12/25 02:53:45;;;;;;;1.70;0.20;;;5.60;99.90;;;;;;5032770;28;20220;-63
2020/12/25 02:56:15;;;;;;;1.70;0.20;;;5.60;99.90;;;;;;5027702;28;20217;-63
2020/12/25 02:58:41;;;;;;;2.07;0.50;;;5.60;99.90;;;;;;5023951;28;20441;-63
2020/12/25 03:01:09;;;;;;;1.70;0.20;;;5.60;99.90;;;;;;5028774;28;20458;-63
2020/12/25 03:03:35;;;;;;;2.43;0.57;;;5.60;99.90;;;;;;5030269;28;20205;-63
2020/12/25 03:06:00;;;;;;;1.70;0.20;;;5.60;99.90;;;;;;5028596;28;20460;-63
2020/12/25 03:08:26;;;;;;;1.70;0.20;;;5.50;99.90;;;;;;5031227;28;20232;-63
2020/12/25 03:10:51;;;;;;;1.80;0.40;;;5.60;99.90;;;;;;5029617;28;20688;-63
2020/12/25 03:13:17;;;;;;;1.70;0.20;;;5.60;99.90;;;;;;5031216;28;20217;-64
2020/12/25 03:15:42;;;;;;;1.73;0.20;;;5.70;99.90;;;;;;5030695;28;20677;-64
2020/12/25 03:18:08;;;;;;;1.70;0.20;;;5.70;99.90;;;;;;5031885;28;20193;-63
2020/12/25 03:20:33;;;;;;;1.80;0.40;;;5.80;99.90;;;;;;5036500;28;20195;-63
2020/12/25 03:22:59;;;;;;;1.70;0.20;;;5.70;99.90;;;;;;5033758;28;20190;-64
2020/12/25 03:25:24;;;;;;;1.70;0.20;;;5.60;99.90;;;;;;5036313;28;20239;-63
2020/12/25 03:27:50;;;;;;;1.77;0.30;;;5.60;99.90;;;;;;5035141;28;20186;-64
2020/12/25 03:30:15;;;;;;;1.70;0.20;;;5.70;99.90;;;;;;5033950;28;20280;-64
2020/12/25 03:32:41;;;;;;;1.70;0.20;;;5.80;99.90;;;;;;5034259;28;20533;-64
2020/12/25 03:35:06;;;;;;;2.43;2.20;;;5.80;99.90;;;;;;5035556;28;20182;-64
2020/12/25 03:37:32;;;;;;;1.70;0.20;;;5.80;99.90;;;;;;5034663;28;20198;-64
2020/12/25 03:39:58;;;;;;;1.70;0.20;;;5.80;99.90;;;;;;5033888;28;20688;-64
2020/12/25 03:42:24;;;;;;;1.70;0.20;;;5.90;99.90;;;;;;5034041;28;20181;-64
2020/12/25 03:44:54;;;;;;;1.70;0.20;;;5.90;99.90;;;;;;5033461;28;20458;-64
2020/12/25 03:47:23;;;;;;;1.70;0.20;;;5.90;99.90;;;;;;5033541;28;20245;-64
2020/12/25 03:49:49;;;;;;;1.70;0.20;;;5.80;99.90;;;;;;5014624;28;20451;-64
2020/12/25 03:52:15;;;;;;;3.83;2.27;;;5.80;99.90;;;;;;5032464;28;20444;-64
2020/12/25 03:54:40;;;;;;;2.50;2.00;;;5.80;99.90;;;;;;5035347;28;20949;-64
2020/12/25 03:57:06;;;;;;;1.80;0.30;;;5.80;99.90;;;;;;5033089;28;20217;-64
2020/12/25 03:59:31;;;;;;;1.70;0.20;;;5.80;99.90;;;;;;5034279;28;20182;-64
2020/12/25 04:01:57;;;;;;;1.70;0.20;;;5.80;99.90;;;;;;5034926;28;20189;-64
2020/12/25 04:04:22;;;;;;;1.70;0.20;;;5.80;99.90;;;;;;5031824;28;20268;-64
2020/12/25 04:06:48;;;;;;;1.90;0.63;;;5.80;99.90;;;;;;5034142;28;20214;-64
2020/12/25 04:09:13;;;;;;;1.70;0.20;;;5.80;99.90;;;;;;5033451;28;20724;-64
2020/12/25 04:11:39;;;;;;;1.70;0.20;;;5.80;99.90;;;;;;5033155;28;20229;-64
2020/12/25 04:14:04;;;;;;;9.80;1.10;;;5.80;99.90;;;;;;5023558;28;20174;-64
2020/12/25 04:16:30;;;;;;;1.70;0.20;;;5.80;99.90;;;;;;5029545;28;20268;-64
2020/12/25 04:18:56;;;;;;;6.23;2.10;;;5.80;99.90;;;;;;5031728;28;20190;-64
2020/12/25 04:21:21;;;;;;;1.70;0.20;;;5.70;99.90;;;;;;5031644;28;20424;-64
2020/12/25 04:23:47;;;;;;;3.30;0.60;;;5.70;99.90;;;;;;5030566;28;20784;-64
2020/12/25 04:26:12;;;;;;;5.70;1.50;;;5.70;99.90;;;;;;5027801;28;20210;-63
2020/12/25 04:28:38;;;;;;;1.73;0.20;;;5.60;99.90;;;;;;5029706;28;20182;-64
2020/12/25 04:31:03;;;;;;;1.80;0.37;;;5.50;99.90;;;;;;5032028;28;20303;-64
2020/12/25 04:33:29;;;;;;;1.70;0.20;;;5.50;99.90;;;;;;5032854;28;20182;-64
2020/12/25 04:35:54;;;;;;;1.70;0.20;;;5.50;99.90;;;;;;5026872;28;20264;-64
2020/12/25 04:38:20;;;;;;;2.73;0.90;;;5.50;99.90;;;;;;5032238;28;20205;-64
2020/12/25 04:40:45;;;;;;;1.70;0.20;;;5.60;99.90;;;;;;5014081;28;20212;-64
2020/12/25 04:43:14;;;;;;;1.70;0.20;;;5.70;99.90;;;;;;5049118;23;20282;-58
2020/12/25 04:45:40;;;;;;;1.70;0.20;;;5.60;99.90;;;;;;5034545;28;20292;-58
2020/12/25 04:48:06;;;;;;;1.70;0.20;;;5.70;99.90;;;;;;5041406;28;20483;-59
2020/12/25 04:50:32;;;;;;;2.50;0.40;;;5.80;99.90;;;;;;5032384;28;20472;-58
2020/12/25 04:52:59;;;;;;;1.70;0.20;;;5.70;99.90;;;;;;5025980;28;20461;-59
2020/12/25 04:55:24;;;;;;;1.70;0.20;;;5.60;99.90;;;;;;5007896;28;20193;-58
2020/12/25 04:57:50;;;;;;;3.80;2.50;;;5.50;99.90;;;;;;5017137;28;20553;-58
2020/12/25 05:00:18;;;;;;;1.80;0.20;;;5.60;99.90;;;;;;5013938;28;20187;-61
2020/12/25 05:02:46;;;;;;;1.70;0.20;;;5.60;99.90;;;;;;5022894;28;20440;-58
2020/12/25 05:05:12;;;;;;;1.70;0.23;;;5.60;99.90;;;;;;5016238;28;20441;-58
2020/12/25 05:07:40;;;;;;;1.70;0.20;;;5.60;99.90;;;;;;5018034;28;20488;-58
2020/12/25 05:10:08;;;;;;;1.70;0.20;;;5.50;99.90;;;;;;5017103;28;20182;-57
2020/12/25 05:12:34;;;;;;;1.70;0.20;;;5.50;99.90;;;;;;5014774;28;20457;-59
2020/12/25 05:15:04;;;;;;;1.70;0.20;;;5.50;99.90;;;;;;5023630;28;21128;-58
2020/12/25 05:17:31;;;;;;;1.70;0.20;;;5.50;99.90;;;;;;5015847;28;20237;-58
2020/12/25 05:19:57;;;;;;;1.70;0.20;;;5.50;99.90;;;;;;5015365;28;20453;-61
2020/12/25 05:22:24;;;;;;;1.73;0.20;;;5.50;99.90;;;;;;5011635;28;20511;-58
2020/12/25 05:24:49;;;;;;;1.73;0.20;;;5.60;99.90;;;;;;4994396;28;20449;-59
2020/12/25 05:27:15;;;;;;;1.70;0.20;;;5.60;99.90;;;;;;5011698;28;20480;-58
2020/12/25 05:29:41;;;;;;;5.43;1.37;;;5.60;99.90;;;;;;5005413;28;20197;-59
2020/12/25 05:32:07;;;;;;;1.70;0.20;;;5.50;99.90;;;;;;5015198;28;20220;-59
2020/12/25 05:34:34;;;;;;;1.70;0.20;;;5.40;99.90;;;;;;5013952;28;20465;-58
2020/12/25 05:37:02;;;;;;;1.80;0.30;;;5.50;99.90;;;;;;5016498;28;21037;-58
2020/12/25 05:39:30;;;;;;;2.20;0.77;;;5.40;99.90;;;;;;5014850;28;20879;-59
2020/12/25 05:42:01;;;;;;;2.27;0.57;;;5.40;99.90;;;;;;5014323;28;20504;-59
2020/12/25 05:44:34;;;;;;;1.70;0.20;;;5.40;99.90;;;;;;5025876;28;20979;-59
2020/12/25 05:47:01;;;;;;;1.70;0.20;;;5.40;99.90;;;;;;5018080;28;20473;-58
2020/12/25 05:49:29;;;;;;;1.90;0.60;;;5.40;99.90;;;;;;5013165;28;20449;-59
2020/12/25 05:51:55;;;;;;;1.70;0.20;;;5.50;99.90;;;;;;5015336;28;20812;-58
2020/12/25 05:54:25;;;;;;;1.70;0.20;;;5.50;99.90;;;;;;5014654;28;20444;-57
2020/12/25 05:56:55;;;;;;;1.70;0.20;;;5.50;99.90;;;;;;5011195;28;20488;-58
2020/12/25 05:59:29;;;;;;;1.70;0.20;;;5.50;99.90;;;;;;5015552;28;20438;-58
2020/12/25 06:02:00;;;;;;;1.70;0.20;;;5.50;99.90;;;;;;5015984;28;20445;-58
2020/12/25 06:04:27;;;;;;;1.70;0.20;;;5.50;99.90;;;;;;5014953;28;20456;-58
2020/12/25 06:06:54;;;;;;;3.97;3.53;;;5.40;99.90;;;;;;5011732;28;20477;-59
2020/12/25 06:09:21;;;;;;;2.13;0.30;;;5.50;99.90;;;;;;5018081;28;20517;-58
2020/12/25 06:11:49;;;;;;;1.87;0.50;;;5.40;99.90;;;;;;5020646;28;20453;-58
2020/12/25 06:14:15;;;;;;;1.73;0.20;;;5.40;99.90;;;;;;5013633;28;20434;-58
2020/12/25 06:16:54;;;;;;;1.70;0.20;;;5.50;99.90;;;;;;5015464;28;21039;-59
2020/12/25 06:19:37;;;;;;;1.70;0.20;;;5.50;99.90;;;;;;5014066;28;20441;-59
2020/12/25 06:22:22;;;;;;;1.97;0.80;;;5.50;99.90;;;;;;5014901;28;20486;-58
2020/12/25 06:24:49;;;;;;;1.70;0.20;;;5.60;99.90;;;;;;5016633;28;20446;-58
2020/12/25 06:27:15;;;;;;;1.70;0.20;;;5.50;99.90;;;;;;5014968;28;20470;-59
2020/12/25 06:29:44;;;;;;;1.70;0.20;;;5.50;99.90;;;;;;5017273;28;20456;-58
2020/12/25 06:32:11;;;;;;;1.70;0.20;;;5.50;99.90;;;;;;5014403;28;20199;-59
2020/12/25 06:34:44;;;;;;;1.70;0.20;;;5.50;99.90;;;;;;5014651;28;20444;-59
2020/12/25 06:37:14;;;;;;;1.70;0.20;;;5.50;99.90;;;;;;5015892;28;20982;-58
2020/12/25 06:39:50;;;;;;;1.70;0.20;;;5.40;99.90;;;;;;5012609;28;20813;-58
2020/12/25 06:42:36;;;;;;;1.70;0.20;;;5.40;99.90;;;;;;5014678;28;21059;-58
2020/12/25 06:45:12;;;;;;;1.70;0.20;;;5.30;99.90;;;;;;5023237;28;20445;-59
2020/12/25 06:47:39;;;;;;;1.70;0.20;;;5.30;99.90;;;;;;5019390;28;21100;-58
2020/12/25 06:50:13;;;;;;;1.70;0.20;;;5.20;99.90;;;;;;5012746;28;20441;-58
2020/12/25 06:52:56;;;;;;;1.70;0.20;;;5.20;99.90;;;;;;5016892;28;20472;-59
2020/12/25 06:55:23;;;;;;;1.70;0.20;;;5.30;99.90;;;;;;5012623;28;20485;-58
2020/12/25 06:57:53;;;;;;;1.70;0.20;;;5.20;99.90;;;;;;5013043;28;20436;-58
2020/12/25 07:00:22;;;;;;;1.70;0.20;;;5.20;99.90;;;;;;5009097;28;20477;-58
2020/12/25 07:02:49;;;;;;;1.70;0.20;;;5.30;99.90;;;;;;5020380;28;20484;-58
2020/12/25 07:05:15;;;;;;;1.70;0.20;;;5.20;99.90;;;;;;5014211;28;20444;-58
2020/12/25 07:07:40;;;;;;;2.03;1.27;;;5.10;99.90;;;;;;5020425;28;20441;-59
2020/12/25 07:10:13;;;;;;;1.90;0.60;;;5.10;99.90;;;;;;5014583;28;20452;-59
2020/12/25 07:12:39;;;;;;;1.73;0.20;;;5.10;99.90;;;;;;5013634;28;20206;-58
2020/12/25 07:15:06;;;;;;;1.70;0.20;;;5.00;99.90;;;;;;5022407;28;20433;-59
2020/12/25 07:17:33;;;;;;;1.73;0.20;;;5.00;99.90;;;;;;5023006;28;20955;-58
2020/12/25 07:19:58;;;;;;;1.70;0.20;;;5.00;99.90;;;;;;5027754;28;20468;-59
2020/12/25 07:22:24;;;;;;;1.70;0.20;;;5.00;99.90;;;;;;5028968;28;20206;-59
2020/12/25 07:24:49;;;;;;;1.80;0.30;;;4.90;99.90;;;;;;5025025;28;20186;-58
2020/12/25 07:27:15;;;;;;;1.70;0.20;;;4.90;99.90;;;;;;5031298;28;20273;-59
2020/12/25 07:29:42;;;;;;;1.70;0.20;;;4.90;99.90;;;;;;5026734;28;20179;-58
2020/12/25 07:32:12;;;;;;;1.70;0.20;;;4.90;99.90;;;;;;5029500;28;20198;-58
2020/12/25 07:34:38;;;;;;;1.73;0.20;;;5.00;99.90;;;;;;5031874;28;20174;-59
2020/12/25 07:37:06;;;;;;;1.70;0.20;;;5.00;99.90;;;;;;5025882;28;20183;-59
2020/12/25 07:39:32;;;;;;;1.70;0.20;;;5.00;99.90;;;;;;5017207;28;20459;-59
2020/12/25 07:41:58;;;;;;;1.70;0.20;;;5.00;99.90;;;;;;5014384;28;20441;-58
2020/12/25 07:44:24;;;;;;;1.70;0.20;;;5.00;99.90;;;;;;5014690;28;20191;-59
2020/12/25 07:46:51;;;;;;;1.70;0.20;;;5.10;99.90;;;;;;5020110;28;20472;-58
2020/12/25 07:49:18;;;;;;;1.73;0.20;;;5.10;99.90;;;;;;5022477;28;20187;-58
2020/12/25 07:51:46;;;;;;;1.70;0.20;;;5.00;99.90;;;;;;5024817;28;20894;-58
2020/12/25 07:54:14;;;;;;;1.70;0.20;;;5.00;99.90;;;;;;5016456;28;20456;-59
2020/12/25 07:56:39;;;;;;;1.77;0.30;;;4.90;99.90;;;;;;5015719;28;20205;-58
2020/12/25 07:59:05;;;;;;;1.70;0.20;;;4.90;99.90;;;;;;5009180;28;20949;-58
2020/12/25 08:01:32;;;;;;;1.70;0.20;;;4.80;99.90;;;;;;5010592;28;20271;-58
2020/12/25 08:04:03;;;;;;;1.73;0.20;;;4.80;99.90;;;;;;5021668;28;20222;-58
2020/12/25 08:06:31;;;;;;;2.20;0.93;;;4.80;99.90;;;;;;5016123;28;20229;-58
2020/12/25 08:09:04;;;;;;;1.70;0.20;;;4.80;99.90;;;;;;5014624;28;20456;-58
2020/12/25 08:11:31;;;;;;;1.70;0.20;;;4.70;99.90;;;;;;5016284;28;20269;-60
2020/12/25 08:14:02;;;;;;;1.77;0.20;;;4.60;99.90;;;;;;5020938;28;20282;-58
2020/12/25 08:16:30;;;;;;;3.15;2.17;;;4.50;99.90;;;;;;5016763;28;20589;-58
2020/12/25 08:18:56;;;;;;;1.77;0.30;;;4.60;99.90;;;;;;5015650;28;20802;-59
2020/12/25 08:21:33;;;;;;;1.70;0.20;;;4.60;99.90;;;;;;5015256;28;20190;-59
2020/12/25 08:24:00;;;;;;;1.77;0.37;;;4.70;99.90;;;;;;5011842;28;20640;-60
2020/12/25 08:26:36;;;;;;;2.00;0.75;;;4.80;99.90;;;;;;5020411;28;20468;-58
2020/12/25 08:29:01;;;;;;;1.70;0.20;;;4.70;99.90;;;;;;5012533;28;20656;-59
2020/12/25 08:31:34;;;;;;;1.70;0.20;;;4.70;99.90;;;;;;5013454;28;20187;-59
2020/12/25 08:34:00;;;;;;;1.70;0.20;;;4.80;99.90;;;;;;5003602;28;20217;-59
2020/12/25 08:36:27;;;;;;;1.80;0.40;;;4.80;99.90;;;;;;5014052;28;20186;-59
2020/12/25 08:38:52;;;;;;;1.70;0.20;;;4.80;99.90;;;;;;5008617;28;20201;-59
2020/12/25 08:41:18;;;;;;;1.70;0.20;;;4.80;99.90;;;;;;5009835;28;20194;-58
2020/12/25 08:43:43;;;;;;;1.70;0.20;;;4.80;99.90;;;;;;4992629;28;20708;-60
2020/12/25 08:46:09;;;;;;;1.70;0.20;;;4.90;99.90;;;;;;4997379;28;20217;-59
2020/12/25 08:48:48;;;;;;;1.70;0.20;;;4.90;99.90;;;;;;5018924;28;20375;-59
2020/12/25 08:51:15;;;;;;;3.00;1.73;;;4.90;99.90;;;;;;5016263;28;20182;-59
2020/12/25 08:53:52;;;;;;;1.70;0.20;;;4.80;99.90;;;;;;5016177;28;20208;-59
2020/12/25 08:56:20;;;;;;;1.73;0.20;;;4.90;99.90;;;;;;5011404;28;20511;-59
2020/12/25 08:59:04;;;;;;;1.70;0.20;;;4.90;99.90;;;;;;5014919;28;20788;-59
2020/12/25 09:01:31;;;;;;;1.70;0.20;;;4.90;99.90;;;;;;5019131;28;20681;-60
2020/12/25 09:03:58;;;;;;;1.70;0.20;;;4.90;99.90;;;;;;5008232;28;20215;-59
2020/12/25 09:06:24;;;;;;;1.75;0.20;;;5.00;99.90;;;;;;5016436;28;20480;-59
2020/12/25 09:08:50;;;;;;;1.70;0.20;;;5.10;99.90;;;;;;5016231;28;20707;-59
2020/12/25 09:11:18;;;;;;;1.77;0.27;;;5.10;99.90;;;;;;5018860;28;20269;-59
2020/12/25 09:13:44;;;;;;;1.83;0.35;;;5.10;99.90;;;;;;5015349;28;20244;-60
2020/12/25 09:16:10;;;;;;;1.70;0.20;;;5.10;99.90;;;;;;5014598;28;20209;-59
2020/12/25 09:18:37;;;;;;;1.70;0.20;;;5.10;99.90;;;;;;5014229;28;20940;-59
2020/12/25 09:21:03;;;;;;;1.70;0.20;;;5.20;99.90;;;;;;5014763;28;20504;-58
2020/12/25 09:23:29;;;;;;;1.70;0.20;;;5.20;99.90;;;;;;5015093;28;20460;-59
2020/12/25 09:25:55;;;;;;;1.90;0.50;;;5.20;99.90;;;;;;5016820;28;20677;-59
2020/12/25 09:28:24;;;;;;;2.00;0.70;;;5.20;99.90;;;;;;5015562;28;20900;-59
2020/12/25 09:30:56;;;;;;;2.28;0.32;;;5.10;99.90;;;;;;5018023;28;20433;-59
2020/12/25 09:33:22;;;;;;;1.90;0.50;;;5.00;99.90;;;;;;5013872;28;20219;-60
2020/12/25 09:35:48;;;;;;;1.73;0.20;;;5.00;99.90;;;;;;5011890;28;20666;-59
2020/12/25 09:38:14;;;;;;;1.70;0.20;;;5.00;99.90;;;;;;5006091;28;20660;-59
2020/12/25 09:40:40;;;;;;;1.70;0.20;;;5.10;99.90;;;;;;5013959;28;20190;-61
2020/12/25 09:43:05;;;;;;;3.00;0.50;;;5.10;99.90;;;;;;5013273;28;20689;-59
2020/12/25 09:45:31;;;;;;;2.00;0.30;;;5.00;99.90;;;;;;5015141;28;20190;-58
2020/12/25 09:47:57;;;;;;;1.90;0.60;;;5.00;99.90;;;;;;5015588;28;20236;-59
2020/12/25 09:50:22;;;;;;;1.80;0.30;;;5.00;99.90;;;;;;5013810;28;20183;-59
2020/12/25 09:52:48;;;;;;;1.70;0.20;;;5.10;99.90;;;;;;5005349;28;20253;-59
2020/12/25 09:55:14;;;;;;;2.30;0.55;;;5.20;99.90;;;;;;5014024;28;20182;-58
2020/12/25 09:57:39;;;;;;;1.80;0.30;;;5.20;99.90;;;;;;5016882;28;20182;-62
2020/12/25 10:00:10;;;;;;;2.00;0.43;;;5.10;99.90;;;;;;5016253;28;20205;-59
2020/12/25 10:02:36;;;;;;;2.35;0.30;;;5.00;99.90;;;;;;5021381;28;20526;-60
2020/12/25 10:05:04;;;;;;;1.75;0.20;;;5.10;99.90;;;;;;5020860;28;20210;-58
2020/12/25 10:07:30;;;;;;;1.77;0.28;;;5.10;99.90;;;;;;5024467;28;20617;-59
2020/12/25 10:09:55;;;;;;;1.80;0.37;;;5.00;99.90;;;;;;5021466;28;20194;-59
2020/12/25 10:12:21;;;;;;;1.70;0.20;;;5.00;99.90;;;;;;5019600;28;20202;-59
2020/12/25 10:14:46;;;;;;;1.70;0.20;;;5.00;99.90;;;;;;5022820;28;20189;-58
2020/12/25 10:17:12;;;;;;;1.70;0.20;;;5.10;99.90;;;;;;5015600;28;20198;-59
2020/12/25 10:19:37;;;;;;;1.70;0.30;;;5.20;99.90;;;;;;5016712;28;20542;-59
2020/12/25 10:22:03;;;;;;;1.80;0.40;;;5.20;99.90;;;;;;5018263;28;20210;-58
2020/12/25 10:24:28;;;;;;;2.10;0.40;;;5.20;99.90;;;;;;5012950;28;20214;-59
2020/12/25 10:26:54;;;;;;;1.70;0.20;;;5.20;99.90;;;;;;5016732;28;20714;-59
2020/12/25 10:29:19;;;;;;;1.70;0.20;;;5.20;99.90;;;;;;5013666;28;20210;-60
2020/12/25 10:31:46;;;;;;;1.80;0.40;;;5.20;99.90;;;;;;5010114;28;20189;-59
2020/12/25 10:34:12;;;;;;;1.80;0.30;;;5.20;99.90;;;;;;5011189;28;20670;-60
2020/12/25 10:36:37;;;;;;;2.27;1.00;;;5.20;99.90;;;;;;5015115;28;20241;-59
2020/12/25 10:39:03;;;;;;;2.00;0.50;;;5.10;99.90;;;;;;5013759;28;20198;-59
2020/12/25 10:41:30;;;;;;;1.70;0.20;;;5.00;99.90;;;;;;5016927;28;20194;-60
2020/12/25 10:43:56;;;;;;;1.70;0.20;;;5.10;99.90;;;;;;5012587;28;20306;-59
2020/12/25 10:46:22;;;;;;;1.70;0.20;;;5.20;99.90;;;;;;5013352;28;20206;-59
2020/12/25 10:48:47;;;;;;;1.70;0.20;;;5.20;99.90;;;;;;5012087;28;20186;-59
2020/12/25 10:51:13;;;;;;;2.30;0.77;;;5.20;99.90;;;;;;5011796;28;20286;-59
2020/12/25 10:53:40;;;;;;;1.77;0.20;;;5.20;99.90;;;;;;5011518;28;20206;-59
2020/12/25 10:56:05;;;;;;;1.70;0.20;;;5.10;99.90;;;;;;5010576;28;20201;-59
2020/12/25 10:58:31;;;;;;;1.70;0.20;;;5.20;99.90;;;;;;5013309;28;20438;-59
2020/12/25 11:00:56;;;;;;;5.10;4.63;;;5.20;99.90;;;;;;5013908;28;20190;-59
2020/12/25 11:03:22;;;;;;;1.70;0.20;;;5.20;99.90;;;;;;5013920;28;20551;-59
2020/12/25 11:05:48;;;;;;;1.80;0.33;;;5.10;99.90;;;;;;5009642;28;20749;-59
2020/12/25 11:08:14;;;;;;;1.70;0.20;;;5.20;99.90;;;;;;5012740;28;20248;-59
2020/12/25 11:10:44;;;;;;;1.70;0.20;;;5.20;99.90;;;;;;5017822;28;20190;-59
2020/12/25 11:13:09;;;;;;;1.73;0.30;;;5.20;99.90;;;;;;5024532;28;20727;-58
2020/12/25 11:15:35;;;;;;;1.70;0.20;;;5.20;99.90;;;;;;5015528;28;20429;-59
2020/12/25 11:18:01;;;;;;;1.70;0.20;;;5.30;99.90;;;;;;5012629;28;20277;-60
2020/12/25 11:20:26;;;;;;;1.70;0.20;;;5.30;99.90;;;;;;5017224;28;20181;-59
2020/12/25 11:22:52;;;;;;;1.80;0.30;;;5.30;99.90;;;;;;5017760;28;20454;-59
2020/12/25 11:25:17;;;;;;;1.70;0.20;;;5.20;99.90;;;;;;5014535;28;20277;-58
2020/12/25 11:27:42;;;;;;;1.70;0.20;;;5.10;99.90;;;;;;5014558;28;20210;-59
2020/12/25 11:30:08;;;;;;;1.70;0.20;;;5.20;99.90;;;;;;5014543;28;20265;-59
2020/12/25 11:32:33;;;;;;;1.77;0.27;;;5.10;99.90;;;;;;5014550;28;20268;-59
2020/12/25 11:34:59;;;;;;;1.70;0.20;;;5.10;99.90;;;;;;5013668;28;20182;-59
2020/12/25 11:37:24;;;;;;;1.70;0.20;;;5.10;99.90;;;;;;5013658;28;20360;-59
2020/12/25 11:39:50;;;;;;;1.70;0.20;;;5.10;99.90;;;;;;5012601;28;20674;-59
2020/12/25 11:42:16;;;;;;;1.70;0.20;;;5.10;99.90;;;;;;5012645;28;20217;-59
2020/12/25 11:44:41;;;;;;;1.70;0.20;;;5.00;99.90;;;;;;5020901;28;20256;-59
2020/12/25 11:47:07;;;;;;;1.70;0.20;;;5.10;99.90;;;;;;5017100;28;20285;-59
2020/12/25 11:49:32;;;;;;;1.70;0.20;;;5.10;99.90;;;;;;5014194;28;20650;-60
2020/12/25 11:51:57;;;;;;;1.90;0.30;;;5.10;99.90;;;;;;5016931;28;20321;-59
2020/12/25 11:54:23;;;;;;;1.70;0.20;;;5.10;99.90;;;;;;5013934;28;20217;-59
2020/12/25 11:56:51;;;;;;;1.70;0.20;;;5.10;99.90;;;;;;5012144;28;20210;-59
2020/12/25 11:59:17;;;;;;;1.80;0.30;;;5.20;99.90;;;;;;5019750;28;20535;-58
2020/12/25 12:01:42;;;;;;;1.80;0.30;;;5.10;99.90;;;;;;5019147;28;20630;-60
2020/12/25 12:04:07;;;;;;;1.80;0.30;;;5.10;99.90;;;;;;4998833;28;20209;-59
2020/12/25 12:06:33;;;;;;;1.70;0.20;;;5.00;99.90;;;;;;5017683;28;20613;-59
2020/12/25 12:08:58;;;;;;;1.70;0.20;;;4.90;99.90;;;;;;5019951;28;20210;-59
2020/12/25 12:11:24;;;;;;;1.70;0.20;;;4.90;99.90;;;;;;5017874;28;20197;-59
2020/12/25 12:13:49;;;;;;;1.70;0.20;;;4.90;99.90;;;;;;5016550;28;20206;-59
2020/12/25 12:16:17;;;;;;;1.90;0.70;;;4.90;99.90;;;;;;5023523;28;20205;-59
2020/12/25 12:18:43;;;;;;;1.70;0.20;;;4.90;99.90;;;;;;5023727;28;20213;-59
2020/12/25 12:21:09;;;;;;;1.70;0.20;;;4.90;99.90;;;;;;5022724;28;20434;-60
2020/12/25 12:23:35;;;;;;;1.77;0.30;;;5.00;99.90;;;;;;5026808;28;20242;-60
2020/12/25 12:26:01;;;;;;;1.70;0.20;;;5.10;99.90;;;;;;5016581;28;20249;-59
2020/12/25 12:28:26;;;;;;;1.73;0.30;;;5.10;99.90;;;;;;5000965;28;20187;-61
2020/12/25 12:30:52;;;;;;;1.70;0.20;;;5.10;99.90;;;;;;5018658;28;20174;-58
2020/12/25 12:33:17;;;;;;;1.70;0.20;;;5.10;99.90;;;;;;5013674;28;20241;-60
2020/12/25 12:35:43;;;;;;;1.70;0.20;;;5.20;99.90;;;;;;5008960;28;20189;-60
2020/12/25 12:38:08;;;;;;;1.70;0.20;;;5.20;99.90;;;;;;5015692;28;20202;-60
2020/12/25 12:40:34;;;;;;;1.80;0.30;;;5.20;99.90;;;;;;5017907;28;20202;-59
2020/12/25 12:42:59;;;;;;;2.00;0.50;;;5.20;99.90;;;;;;5019456;28;20233;-60
2020/12/25 12:45:24;;;;;;;1.70;0.20;;;5.20;99.90;;;;;;5019498;28;20197;-60
2020/12/25 12:47:50;;;;;;;1.73;0.23;;;5.20;99.90;;;;;;5014660;28;20269;-59
2020/12/25 12:50:16;;;;;;;1.70;0.20;;;5.30;99.90;;;;;;5021443;28;20179;-59
2020/12/25 12:52:41;;;;;;;1.70;0.20;;;5.30;99.90;;;;;;5020530;28;20218;-59
2020/12/25 12:55:07;;;;;;;1.70;0.20;;;5.30;99.90;;;;;;5016281;28;20183;-59